<?xml version="1.0" encoding="utf-8"?>
<gpx xmlns:xsi="http://www.w3.org/2001/XMLSchema-instance" xmlns:xsd="http://www.w3.org/2001/XMLSchema" version="1.1" creator="Shapelink.com" xmlns="http://www.topografix.com/GPX/1/1" xmlns:gpxtpx="http://www.garmin.com/xmlschemas/TrackPointExtension/v1">
  <metadata>
    <name>Löpning 7.53 km, 2011-08-20</name>
    <desc></desc>
    <author><name>Alexander Engvall</name></author> 
    <time>2011-08-20T15:50:58Z</time>
  </metadata>
  <trk>
    <name>Löpning 7.53 km, 2011-08-20</name>
    <trkseg>
      <trkpt lat="59.43183" lon="17.7783665">
        <ele>15.5184</ele>
        <time>2011-08-20T15:50:58Z</time>
      </trkpt>
      <trkpt lat="59.4317" lon="17.7781997">
        <ele>17.4412</ele>
        <time>2011-08-20T15:51:04Z</time>
      </trkpt>
      <trkpt lat="59.4315689" lon="17.7781076">
        <ele>16.9604</ele>
        <time>2011-08-20T15:51:09Z</time>
      </trkpt>
      <trkpt lat="59.4314098" lon="17.7781197">
        <ele>17.9218</ele>
        <time>2011-08-20T15:51:14Z</time>
      </trkpt>
      <trkpt lat="59.4312892" lon="17.7780947">
        <ele>18.8831</ele>
        <time>2011-08-20T15:51:18Z</time>
      </trkpt>
      <trkpt lat="59.4311378" lon="17.778057">
        <ele>21.2864</ele>
        <time>2011-08-20T15:51:23Z</time>
      </trkpt>
      <trkpt lat="59.4309986" lon="17.7780331">
        <ele>24.1703</ele>
        <time>2011-08-20T15:51:28Z</time>
      </trkpt>
      <trkpt lat="59.4308854" lon="17.7780749">
        <ele>26.5736</ele>
        <time>2011-08-20T15:51:32Z</time>
      </trkpt>
      <trkpt lat="59.4307617" lon="17.7781285">
        <ele>29.9381</ele>
        <time>2011-08-20T15:51:37Z</time>
      </trkpt>
      <trkpt lat="59.4305884" lon="17.7780958">
        <ele>31.8607</ele>
        <time>2011-08-20T15:51:43Z</time>
      </trkpt>
      <trkpt lat="59.4304389" lon="17.7780932">
        <ele>34.7449</ele>
        <time>2011-08-20T15:51:48Z</time>
      </trkpt>
      <trkpt lat="59.4304111" lon="17.7781004">
        <ele>35.2255</ele>
        <time>2011-08-20T15:51:49Z</time>
      </trkpt>
      <trkpt lat="59.4302764" lon="17.7780813">
        <ele>37.1481</ele>
        <time>2011-08-20T15:51:54Z</time>
      </trkpt>
      <trkpt lat="59.430122" lon="17.7780301">
        <ele>40.0321</ele>
        <time>2011-08-20T15:52:00Z</time>
      </trkpt>
      <trkpt lat="59.4300313" lon="17.7780396">
        <ele>43.8773</ele>
        <time>2011-08-20T15:52:03Z</time>
      </trkpt>
      <trkpt lat="59.4299708" lon="17.7780284">
        <ele>44.8386</ele>
        <time>2011-08-20T15:52:05Z</time>
      </trkpt>
      <trkpt lat="59.4297909" lon="17.7779961">
        <ele>42.4354</ele>
        <time>2011-08-20T15:53:16Z</time>
      </trkpt>
      <trkpt lat="59.429791" lon="17.7779809">
        <ele>40.5128</ele>
        <time>2011-08-20T15:53:17Z</time>
      </trkpt>
      <trkpt lat="59.4297692" lon="17.7779565">
        <ele>37.6287</ele>
        <time>2011-08-20T15:53:19Z</time>
      </trkpt>
      <trkpt lat="59.4296523" lon="17.7779237">
        <ele>43.3966</ele>
        <time>2011-08-20T15:53:24Z</time>
      </trkpt>
      <trkpt lat="59.4295001" lon="17.7778452">
        <ele>44.358</ele>
        <time>2011-08-20T15:53:29Z</time>
      </trkpt>
      <trkpt lat="59.4293612" lon="17.7777675">
        <ele>45.3192</ele>
        <time>2011-08-20T15:53:33Z</time>
      </trkpt>
      <trkpt lat="59.4293319" lon="17.777735">
        <ele>45.3192</ele>
        <time>2011-08-20T15:53:34Z</time>
      </trkpt>
      <trkpt lat="59.4291229" lon="17.7776165">
        <ele>47.7225</ele>
        <time>2011-08-20T15:53:40Z</time>
      </trkpt>
      <trkpt lat="59.4289382" lon="17.7774778">
        <ele>41.9547</ele>
        <time>2011-08-20T15:53:45Z</time>
      </trkpt>
      <trkpt lat="59.4288209" lon="17.7774166">
        <ele>41.9547</ele>
        <time>2011-08-20T15:53:49Z</time>
      </trkpt>
      <trkpt lat="59.4286919" lon="17.7774188">
        <ele>42.4354</ele>
        <time>2011-08-20T15:53:53Z</time>
      </trkpt>
      <trkpt lat="59.428636" lon="17.7773922">
        <ele>42.916</ele>
        <time>2011-08-20T15:53:55Z</time>
      </trkpt>
      <trkpt lat="59.4284633" lon="17.7773809">
        <ele>42.916</ele>
        <time>2011-08-20T15:54:01Z</time>
      </trkpt>
      <trkpt lat="59.4284391" lon="17.7773698">
        <ele>43.3966</ele>
        <time>2011-08-20T15:54:02Z</time>
      </trkpt>
      <trkpt lat="59.4283091" lon="17.7772073">
        <ele>43.8773</ele>
        <time>2011-08-20T15:54:09Z</time>
      </trkpt>
      <trkpt lat="59.4281397" lon="17.7771296">
        <ele>45.7999</ele>
        <time>2011-08-20T15:54:14Z</time>
      </trkpt>
      <trkpt lat="59.4279847" lon="17.7769851">
        <ele>46.2806</ele>
        <time>2011-08-20T15:54:19Z</time>
      </trkpt>
      <trkpt lat="59.4279537" lon="17.7769635">
        <ele>46.7612</ele>
        <time>2011-08-20T15:54:20Z</time>
      </trkpt>
      <trkpt lat="59.4277786" lon="17.7769534">
        <ele>48.2034</ele>
        <time>2011-08-20T15:54:25Z</time>
      </trkpt>
      <trkpt lat="59.4275968" lon="17.7769849">
        <ele>52.5292</ele>
        <time>2011-08-20T15:54:31Z</time>
      </trkpt>
      <trkpt lat="59.4274326" lon="17.7770121">
        <ele>56.8551</ele>
        <time>2011-08-20T15:54:36Z</time>
      </trkpt>
      <trkpt lat="59.427329" lon="17.777045">
        <ele>57.3358</ele>
        <time>2011-08-20T15:54:40Z</time>
      </trkpt>
      <trkpt lat="59.4271798" lon="17.7770239">
        <ele>59.7391</ele>
        <time>2011-08-20T15:54:45Z</time>
      </trkpt>
      <trkpt lat="59.4270636" lon="17.7770557">
        <ele>62.1423</ele>
        <time>2011-08-20T15:54:49Z</time>
      </trkpt>
      <trkpt lat="59.4269135" lon="17.7771219">
        <ele>65.9877</ele>
        <time>2011-08-20T15:54:55Z</time>
      </trkpt>
      <trkpt lat="59.4268641" lon="17.7771477">
        <ele>65.9877</ele>
        <time>2011-08-20T15:54:57Z</time>
      </trkpt>
      <trkpt lat="59.4267728" lon="17.7771523">
        <ele>65.0264</ele>
        <time>2011-08-20T15:55:01Z</time>
      </trkpt>
      <trkpt lat="59.4267317" lon="17.7771605">
        <ele>65.0264</ele>
        <time>2011-08-20T15:55:03Z</time>
      </trkpt>
      <trkpt lat="59.4265748" lon="17.7771425">
        <ele>62.1423</ele>
        <time>2011-08-20T15:55:08Z</time>
      </trkpt>
      <trkpt lat="59.4264666" lon="17.7771369">
        <ele>56.3745</ele>
        <time>2011-08-20T15:55:11Z</time>
      </trkpt>
      <trkpt lat="59.426247" lon="17.7770851">
        <ele>48.684</ele>
        <time>2011-08-20T15:55:17Z</time>
      </trkpt>
      <trkpt lat="59.4261941" lon="17.7770483">
        <ele>45.7999</ele>
        <time>2011-08-20T15:55:19Z</time>
      </trkpt>
      <trkpt lat="59.4260821" lon="17.7770167">
        <ele>41.474</ele>
        <time>2011-08-20T15:55:23Z</time>
      </trkpt>
      <trkpt lat="59.425907" lon="17.77698">
        <ele>38.5901</ele>
        <time>2011-08-20T15:55:29Z</time>
      </trkpt>
      <trkpt lat="59.4257103" lon="17.7769815">
        <ele>39.0707</ele>
        <time>2011-08-20T15:55:35Z</time>
      </trkpt>
      <trkpt lat="59.425563" lon="17.7769036">
        <ele>42.4354</ele>
        <time>2011-08-20T15:55:40Z</time>
      </trkpt>
      <trkpt lat="59.4254674" lon="17.7768086">
        <ele>43.8773</ele>
        <time>2011-08-20T15:55:44Z</time>
      </trkpt>
      <trkpt lat="59.4254449" lon="17.7767758">
        <ele>44.358</ele>
        <time>2011-08-20T15:55:45Z</time>
      </trkpt>
      <trkpt lat="59.4252896" lon="17.776624">
        <ele>44.358</ele>
        <time>2011-08-20T15:55:51Z</time>
      </trkpt>
      <trkpt lat="59.4251749" lon="17.7764379">
        <ele>44.358</ele>
        <time>2011-08-20T15:55:56Z</time>
      </trkpt>
      <trkpt lat="59.4250751" lon="17.776246">
        <ele>42.4354</ele>
        <time>2011-08-20T15:56:01Z</time>
      </trkpt>
      <trkpt lat="59.4250232" lon="17.7760791">
        <ele>41.474</ele>
        <time>2011-08-20T15:56:04Z</time>
      </trkpt>
      <trkpt lat="59.4248973" lon="17.7757595">
        <ele>39.0707</ele>
        <time>2011-08-20T15:56:10Z</time>
      </trkpt>
      <trkpt lat="59.4247742" lon="17.7755408">
        <ele>38.5901</ele>
        <time>2011-08-20T15:56:15Z</time>
      </trkpt>
      <trkpt lat="59.4246834" lon="17.7752638">
        <ele>35.2255</ele>
        <time>2011-08-20T15:56:20Z</time>
      </trkpt>
      <trkpt lat="59.4246155" lon="17.7749735">
        <ele>33.3029</ele>
        <time>2011-08-20T15:56:24Z</time>
      </trkpt>
      <trkpt lat="59.4245913" lon="17.7748437">
        <ele>33.3029</ele>
        <time>2011-08-20T15:56:26Z</time>
      </trkpt>
      <trkpt lat="59.4246087" lon="17.7746702">
        <ele>32.3416</ele>
        <time>2011-08-20T15:56:29Z</time>
      </trkpt>
      <trkpt lat="59.4246061" lon="17.774403">
        <ele>30.4188</ele>
        <time>2011-08-20T15:56:34Z</time>
      </trkpt>
      <trkpt lat="59.4246225" lon="17.7741709">
        <ele>31.3801</ele>
        <time>2011-08-20T15:56:38Z</time>
      </trkpt>
      <trkpt lat="59.4246421" lon="17.773986">
        <ele>29.9381</ele>
        <time>2011-08-20T15:56:42Z</time>
      </trkpt>
      <trkpt lat="59.4246839" lon="17.7737092">
        <ele>29.9381</ele>
        <time>2011-08-20T15:56:47Z</time>
      </trkpt>
      <trkpt lat="59.4247403" lon="17.7734958">
        <ele>28.9769</ele>
        <time>2011-08-20T15:56:51Z</time>
      </trkpt>
      <trkpt lat="59.4247483" lon="17.7732639">
        <ele>30.8995</ele>
        <time>2011-08-20T15:56:55Z</time>
      </trkpt>
      <trkpt lat="59.4247792" lon="17.7730436">
        <ele>31.8607</ele>
        <time>2011-08-20T15:56:59Z</time>
      </trkpt>
      <trkpt lat="59.4248891" lon="17.7728376">
        <ele>33.3029</ele>
        <time>2011-08-20T15:57:04Z</time>
      </trkpt>
      <trkpt lat="59.4249384" lon="17.7726508">
        <ele>35.7061</ele>
        <time>2011-08-20T15:57:08Z</time>
      </trkpt>
      <trkpt lat="59.4249097" lon="17.7729244">
        <ele>32.8223</ele>
        <time>2011-08-20T15:57:14Z</time>
      </trkpt>
      <trkpt lat="59.4248887" lon="17.7729742">
        <ele>33.7834</ele>
        <time>2011-08-20T15:57:15Z</time>
      </trkpt>
      <trkpt lat="59.4248099" lon="17.7731931">
        <ele>35.2255</ele>
        <time>2011-08-20T15:57:21Z</time>
      </trkpt>
      <trkpt lat="59.4247845" lon="17.7733901">
        <ele>37.1481</ele>
        <time>2011-08-20T15:57:26Z</time>
      </trkpt>
      <trkpt lat="59.4247601" lon="17.7736833">
        <ele>40.0321</ele>
        <time>2011-08-20T15:57:32Z</time>
      </trkpt>
      <trkpt lat="59.4247647" lon="17.7739859">
        <ele>40.9934</ele>
        <time>2011-08-20T15:57:37Z</time>
      </trkpt>
      <trkpt lat="59.4247724" lon="17.7741117">
        <ele>41.9547</ele>
        <time>2011-08-20T15:57:39Z</time>
      </trkpt>
      <trkpt lat="59.4247668" lon="17.7744509">
        <ele>44.358</ele>
        <time>2011-08-20T15:57:45Z</time>
      </trkpt>
      <trkpt lat="59.4247719" lon="17.7744951">
        <ele>44.8386</ele>
        <time>2011-08-20T15:57:46Z</time>
      </trkpt>
      <trkpt lat="59.4247721" lon="17.7745436">
        <ele>45.7999</ele>
        <time>2011-08-20T15:57:47Z</time>
      </trkpt>
      <trkpt lat="59.4247202" lon="17.7747458">
        <ele>35.7061</ele>
        <time>2011-08-20T15:58:46Z</time>
      </trkpt>
      <trkpt lat="59.4247213" lon="17.7747608">
        <ele>36.6675</ele>
        <time>2011-08-20T15:58:47Z</time>
      </trkpt>
      <trkpt lat="59.4247123" lon="17.7748979">
        <ele>37.6287</ele>
        <time>2011-08-20T15:58:49Z</time>
      </trkpt>
      <trkpt lat="59.4247674" lon="17.7751535">
        <ele>39.0707</ele>
        <time>2011-08-20T15:58:54Z</time>
      </trkpt>
      <trkpt lat="59.4247965" lon="17.775271">
        <ele>39.0707</ele>
        <time>2011-08-20T15:58:56Z</time>
      </trkpt>
      <trkpt lat="59.4249208" lon="17.7755425">
        <ele>37.1481</ele>
        <time>2011-08-20T15:59:01Z</time>
      </trkpt>
      <trkpt lat="59.4250473" lon="17.7758778">
        <ele>37.6287</ele>
        <time>2011-08-20T15:59:07Z</time>
      </trkpt>
      <trkpt lat="59.4251615" lon="17.7761505">
        <ele>36.1868</ele>
        <time>2011-08-20T15:59:13Z</time>
      </trkpt>
      <trkpt lat="59.4252865" lon="17.7763382">
        <ele>34.2642</ele>
        <time>2011-08-20T15:59:19Z</time>
      </trkpt>
      <trkpt lat="59.4254116" lon="17.7765058">
        <ele>33.3029</ele>
        <time>2011-08-20T15:59:24Z</time>
      </trkpt>
      <trkpt lat="59.4255018" lon="17.7766298">
        <ele>32.8223</ele>
        <time>2011-08-20T15:59:28Z</time>
      </trkpt>
      <trkpt lat="59.4256217" lon="17.7766561">
        <ele>34.2642</ele>
        <time>2011-08-20T15:59:33Z</time>
      </trkpt>
      <trkpt lat="59.4257931" lon="17.7767391">
        <ele>36.6675</ele>
        <time>2011-08-20T15:59:39Z</time>
      </trkpt>
      <trkpt lat="59.4258955" lon="17.7768042">
        <ele>35.7061</ele>
        <time>2011-08-20T15:59:44Z</time>
      </trkpt>
      <trkpt lat="59.4260625" lon="17.7768202">
        <ele>36.1868</ele>
        <time>2011-08-20T15:59:50Z</time>
      </trkpt>
      <trkpt lat="59.4261982" lon="17.776782">
        <ele>37.1481</ele>
        <time>2011-08-20T15:59:54Z</time>
      </trkpt>
      <trkpt lat="59.4262909" lon="17.7768136">
        <ele>36.1868</ele>
        <time>2011-08-20T15:59:57Z</time>
      </trkpt>
      <trkpt lat="59.4264022" lon="17.7768059">
        <ele>37.1481</ele>
        <time>2011-08-20T16:00:01Z</time>
      </trkpt>
      <trkpt lat="59.4265292" lon="17.7767873">
        <ele>37.1481</ele>
        <time>2011-08-20T16:00:05Z</time>
      </trkpt>
      <trkpt lat="59.426674" lon="17.7767338">
        <ele>36.1868</ele>
        <time>2011-08-20T16:00:11Z</time>
      </trkpt>
      <trkpt lat="59.4268239" lon="17.7767236">
        <ele>34.2642</ele>
        <time>2011-08-20T16:00:16Z</time>
      </trkpt>
      <trkpt lat="59.4269398" lon="17.7767282">
        <ele>35.7061</ele>
        <time>2011-08-20T16:00:21Z</time>
      </trkpt>
      <trkpt lat="59.4269664" lon="17.7767327">
        <ele>35.7061</ele>
        <time>2011-08-20T16:00:22Z</time>
      </trkpt>
      <trkpt lat="59.4271814" lon="17.7767541">
        <ele>35.7061</ele>
        <time>2011-08-20T16:00:28Z</time>
      </trkpt>
      <trkpt lat="59.4273076" lon="17.7767576">
        <ele>35.7061</ele>
        <time>2011-08-20T16:00:31Z</time>
      </trkpt>
      <trkpt lat="59.4274237" lon="17.7767187">
        <ele>40.5128</ele>
        <time>2011-08-20T16:00:36Z</time>
      </trkpt>
      <trkpt lat="59.427573" lon="17.7767182">
        <ele>40.0321</ele>
        <time>2011-08-20T16:00:41Z</time>
      </trkpt>
      <trkpt lat="59.4276337" lon="17.7767291">
        <ele>38.5901</ele>
        <time>2011-08-20T16:00:43Z</time>
      </trkpt>
      <trkpt lat="59.4278502" lon="17.7767769">
        <ele>29.9381</ele>
        <time>2011-08-20T16:00:50Z</time>
      </trkpt>
      <trkpt lat="59.4280357" lon="17.7768758">
        <ele>26.0929</ele>
        <time>2011-08-20T16:00:56Z</time>
      </trkpt>
      <trkpt lat="59.4281319" lon="17.7770012">
        <ele>28.0155</ele>
        <time>2011-08-20T16:01:01Z</time>
      </trkpt>
      <trkpt lat="59.4283194" lon="17.777142">
        <ele>29.9381</ele>
        <time>2011-08-20T16:01:07Z</time>
      </trkpt>
      <trkpt lat="59.4283883" lon="17.7771633">
        <ele>27.5349</ele>
        <time>2011-08-20T16:01:10Z</time>
      </trkpt>
      <trkpt lat="59.4285374" lon="17.7771778">
        <ele>26.5736</ele>
        <time>2011-08-20T16:01:15Z</time>
      </trkpt>
      <trkpt lat="59.4287635" lon="17.77716">
        <ele>24.651</ele>
        <time>2011-08-20T16:01:21Z</time>
      </trkpt>
      <trkpt lat="59.4288307" lon="17.7771659">
        <ele>24.651</ele>
        <time>2011-08-20T16:01:23Z</time>
      </trkpt>
      <trkpt lat="59.4289944" lon="17.7772955">
        <ele>25.6123</ele>
        <time>2011-08-20T16:01:29Z</time>
      </trkpt>
      <trkpt lat="59.4290694" lon="17.7773501">
        <ele>26.0929</ele>
        <time>2011-08-20T16:01:32Z</time>
      </trkpt>
      <trkpt lat="59.4292446" lon="17.7774539">
        <ele>28.4962</ele>
        <time>2011-08-20T16:01:38Z</time>
      </trkpt>
      <trkpt lat="59.4292973" lon="17.7774667">
        <ele>29.9381</ele>
        <time>2011-08-20T16:01:40Z</time>
      </trkpt>
      <trkpt lat="59.4294461" lon="17.7775367">
        <ele>32.3416</ele>
        <time>2011-08-20T16:01:45Z</time>
      </trkpt>
      <trkpt lat="59.4295559" lon="17.7776009">
        <ele>35.7061</ele>
        <time>2011-08-20T16:01:49Z</time>
      </trkpt>
      <trkpt lat="59.4296692" lon="17.7776545">
        <ele>36.6675</ele>
        <time>2011-08-20T16:01:53Z</time>
      </trkpt>
      <trkpt lat="59.4297011" lon="17.777658">
        <ele>36.1868</ele>
        <time>2011-08-20T16:01:54Z</time>
      </trkpt>
      <trkpt lat="59.4297956" lon="17.777677">
        <ele>39.5513</ele>
        <time>2011-08-20T16:01:58Z</time>
      </trkpt>
      <trkpt lat="59.429953" lon="17.7777077">
        <ele>38.1094</ele>
        <time>2011-08-20T16:02:03Z</time>
      </trkpt>
      <trkpt lat="59.4300831" lon="17.7777543">
        <ele>40.0321</ele>
        <time>2011-08-20T16:02:08Z</time>
      </trkpt>
      <trkpt lat="59.4302429" lon="17.7777834">
        <ele>38.5901</ele>
        <time>2011-08-20T16:02:13Z</time>
      </trkpt>
      <trkpt lat="59.4303579" lon="17.7778056">
        <ele>38.5901</ele>
        <time>2011-08-20T16:02:17Z</time>
      </trkpt>
      <trkpt lat="59.4304873" lon="17.7778383">
        <ele>40.5128</ele>
        <time>2011-08-20T16:02:22Z</time>
      </trkpt>
      <trkpt lat="59.4306356" lon="17.7778502">
        <ele>39.5513</ele>
        <time>2011-08-20T16:02:27Z</time>
      </trkpt>
      <trkpt lat="59.4306606" lon="17.7778274">
        <ele>39.0707</ele>
        <time>2011-08-20T16:02:28Z</time>
      </trkpt>
      <trkpt lat="59.4307401" lon="17.7777188">
        <ele>34.2642</ele>
        <time>2011-08-20T16:02:32Z</time>
      </trkpt>
      <trkpt lat="59.4307207" lon="17.7776283">
        <ele>29.9381</ele>
        <time>2011-08-20T16:02:36Z</time>
      </trkpt>
      <trkpt lat="59.4306784" lon="17.7775861">
        <ele>29.4575</ele>
        <time>2011-08-20T16:02:39Z</time>
      </trkpt>
      <trkpt lat="59.4305105" lon="17.7774285">
        <ele>30.4188</ele>
        <time>2011-08-20T16:02:45Z</time>
      </trkpt>
      <trkpt lat="59.4303426" lon="17.7773419">
        <ele>37.6287</ele>
        <time>2011-08-20T16:02:51Z</time>
      </trkpt>
      <trkpt lat="59.430216" lon="17.7773175">
        <ele>43.8773</ele>
        <time>2011-08-20T16:02:56Z</time>
      </trkpt>
      <trkpt lat="59.4300812" lon="17.777299">
        <ele>49.6453</ele>
        <time>2011-08-20T16:03:00Z</time>
      </trkpt>
      <trkpt lat="59.4299316" lon="17.7770549">
        <ele>50.6066</ele>
        <time>2011-08-20T16:03:05Z</time>
      </trkpt>
      <trkpt lat="59.429888" lon="17.7767529">
        <ele>51.0872</ele>
        <time>2011-08-20T16:03:09Z</time>
      </trkpt>
      <trkpt lat="59.4298988" lon="17.776427">
        <ele>53.4905</ele>
        <time>2011-08-20T16:03:13Z</time>
      </trkpt>
      <trkpt lat="59.43001" lon="17.7762025">
        <ele>59.2584</ele>
        <time>2011-08-20T16:03:18Z</time>
      </trkpt>
      <trkpt lat="59.4302098" lon="17.7761336">
        <ele>60.2197</ele>
        <time>2011-08-20T16:03:25Z</time>
      </trkpt>
      <trkpt lat="59.4302336" lon="17.7761209">
        <ele>60.2197</ele>
        <time>2011-08-20T16:03:26Z</time>
      </trkpt>
      <trkpt lat="59.4303697" lon="17.7760878">
        <ele>58.2971</ele>
        <time>2011-08-20T16:03:31Z</time>
      </trkpt>
      <trkpt lat="59.430413" lon="17.776082">
        <ele>58.7777</ele>
        <time>2011-08-20T16:03:33Z</time>
      </trkpt>
      <trkpt lat="59.4304738" lon="17.7760709">
        <ele>58.7777</ele>
        <time>2011-08-20T16:03:35Z</time>
      </trkpt>
      <trkpt lat="59.4306663" lon="17.776008">
        <ele>55.4131</ele>
        <time>2011-08-20T16:03:40Z</time>
      </trkpt>
      <trkpt lat="59.430885" lon="17.7759104">
        <ele>53.4905</ele>
        <time>2011-08-20T16:03:45Z</time>
      </trkpt>
      <trkpt lat="59.4309924" lon="17.7758132">
        <ele>52.5292</ele>
        <time>2011-08-20T16:03:49Z</time>
      </trkpt>
      <trkpt lat="59.4311239" lon="17.7756558">
        <ele>48.684</ele>
        <time>2011-08-20T16:03:54Z</time>
      </trkpt>
      <trkpt lat="59.4312276" lon="17.775504">
        <ele>48.684</ele>
        <time>2011-08-20T16:03:58Z</time>
      </trkpt>
      <trkpt lat="59.4313838" lon="17.7753022">
        <ele>48.684</ele>
        <time>2011-08-20T16:04:04Z</time>
      </trkpt>
      <trkpt lat="59.4314736" lon="17.7751939">
        <ele>50.6066</ele>
        <time>2011-08-20T16:04:08Z</time>
      </trkpt>
      <trkpt lat="59.4315849" lon="17.7750878">
        <ele>53.9712</ele>
        <time>2011-08-20T16:04:13Z</time>
      </trkpt>
      <trkpt lat="59.4317086" lon="17.7750052">
        <ele>57.3358</ele>
        <time>2011-08-20T16:04:18Z</time>
      </trkpt>
      <trkpt lat="59.4317595" lon="17.77498">
        <ele>58.2971</ele>
        <time>2011-08-20T16:04:20Z</time>
      </trkpt>
      <trkpt lat="59.4318199" lon="17.7749531">
        <ele>60.2197</ele>
        <time>2011-08-20T16:04:23Z</time>
      </trkpt>
      <trkpt lat="59.431759" lon="17.7749617">
        <ele>59.7391</ele>
        <time>2011-08-20T16:04:27Z</time>
      </trkpt>
      <trkpt lat="59.4316217" lon="17.7751013">
        <ele>57.8165</ele>
        <time>2011-08-20T16:04:33Z</time>
      </trkpt>
      <trkpt lat="59.431469" lon="17.7752903">
        <ele>53.9712</ele>
        <time>2011-08-20T16:04:39Z</time>
      </trkpt>
      <trkpt lat="59.4313513" lon="17.7754569">
        <ele>51.0872</ele>
        <time>2011-08-20T16:04:44Z</time>
      </trkpt>
      <trkpt lat="59.4312161" lon="17.7756714">
        <ele>47.7225</ele>
        <time>2011-08-20T16:04:50Z</time>
      </trkpt>
      <trkpt lat="59.4310927" lon="17.7758424">
        <ele>43.8773</ele>
        <time>2011-08-20T16:04:56Z</time>
      </trkpt>
      <trkpt lat="59.4309674" lon="17.7759709">
        <ele>42.916</ele>
        <time>2011-08-20T16:05:01Z</time>
      </trkpt>
      <trkpt lat="59.4308323" lon="17.7761174">
        <ele>46.2806</ele>
        <time>2011-08-20T16:05:06Z</time>
      </trkpt>
      <trkpt lat="59.4307079" lon="17.7761972">
        <ele>49.1646</ele>
        <time>2011-08-20T16:05:11Z</time>
      </trkpt>
      <trkpt lat="59.4305738" lon="17.7762879">
        <ele>53.9712</ele>
        <time>2011-08-20T16:05:16Z</time>
      </trkpt>
      <trkpt lat="59.4304764" lon="17.7763002">
        <ele>55.8938</ele>
        <time>2011-08-20T16:05:20Z</time>
      </trkpt>
      <trkpt lat="59.4303241" lon="17.7763945">
        <ele>59.7391</ele>
        <time>2011-08-20T16:05:25Z</time>
      </trkpt>
      <trkpt lat="59.4301634" lon="17.7764768">
        <ele>61.6617</ele>
        <time>2011-08-20T16:05:30Z</time>
      </trkpt>
      <trkpt lat="59.4300336" lon="17.7765722">
        <ele>62.1423</ele>
        <time>2011-08-20T16:05:34Z</time>
      </trkpt>
      <trkpt lat="59.4299356" lon="17.776697">
        <ele>60.2197</ele>
        <time>2011-08-20T16:05:38Z</time>
      </trkpt>
      <trkpt lat="59.4298943" lon="17.7767489">
        <ele>58.7777</ele>
        <time>2011-08-20T16:05:40Z</time>
      </trkpt>
      <trkpt lat="59.4299241" lon="17.7769243">
        <ele>52.0486</ele>
        <time>2011-08-20T16:05:45Z</time>
      </trkpt>
      <trkpt lat="59.43002" lon="17.7770313">
        <ele>45.7999</ele>
        <time>2011-08-20T16:05:50Z</time>
      </trkpt>
      <trkpt lat="59.4300397" lon="17.7770458">
        <ele>44.8386</ele>
        <time>2011-08-20T16:05:51Z</time>
      </trkpt>
      <trkpt lat="59.4301647" lon="17.7771447">
        <ele>42.916</ele>
        <time>2011-08-20T16:05:58Z</time>
      </trkpt>
      <trkpt lat="59.4302227" lon="17.7771696">
        <ele>42.4354</ele>
        <time>2011-08-20T16:06:00Z</time>
      </trkpt>
      <trkpt lat="59.4303375" lon="17.7772517">
        <ele>38.5901</ele>
        <time>2011-08-20T16:06:06Z</time>
      </trkpt>
      <trkpt lat="59.4303479" lon="17.7772592">
        <ele>38.1094</ele>
        <time>2011-08-20T16:06:07Z</time>
      </trkpt>
      <trkpt lat="59.4305008" lon="17.7773781">
        <ele>33.7834</ele>
        <time>2011-08-20T16:06:13Z</time>
      </trkpt>
      <trkpt lat="59.4306523" lon="17.7774555">
        <ele>27.5349</ele>
        <time>2011-08-20T16:06:17Z</time>
      </trkpt>
      <trkpt lat="59.4307576" lon="17.7776322">
        <ele>23.6896</ele>
        <time>2011-08-20T16:06:22Z</time>
      </trkpt>
      <trkpt lat="59.4308336" lon="17.7777294">
        <ele>21.767</ele>
        <time>2011-08-20T16:06:25Z</time>
      </trkpt>
      <trkpt lat="59.4309262" lon="17.7778756">
        <ele>20.8057</ele>
        <time>2011-08-20T16:06:30Z</time>
      </trkpt>
      <trkpt lat="59.4309461" lon="17.7778873">
        <ele>20.325</ele>
        <time>2011-08-20T16:06:31Z</time>
      </trkpt>
      <trkpt lat="59.431026" lon="17.7779137">
        <ele>19.3638</ele>
        <time>2011-08-20T16:06:35Z</time>
      </trkpt>
      <trkpt lat="59.431183" lon="17.7779797">
        <ele>21.2864</ele>
        <time>2011-08-20T16:06:41Z</time>
      </trkpt>
      <trkpt lat="59.4313337" lon="17.7780321">
        <ele>22.7283</ele>
        <time>2011-08-20T16:06:46Z</time>
      </trkpt>
      <trkpt lat="59.4314509" lon="17.7780241">
        <ele>22.7283</ele>
        <time>2011-08-20T16:06:50Z</time>
      </trkpt>
      <trkpt lat="59.4315175" lon="17.7780298">
        <ele>22.7283</ele>
        <time>2011-08-20T16:06:54Z</time>
      </trkpt>
      <trkpt lat="59.4313584" lon="17.7780977">
        <ele>21.767</ele>
        <time>2011-08-20T16:07:00Z</time>
      </trkpt>
      <trkpt lat="59.4312488" lon="17.7780477">
        <ele>20.8057</ele>
        <time>2011-08-20T16:07:04Z</time>
      </trkpt>
      <trkpt lat="59.431143" lon="17.7780046">
        <ele>20.325</ele>
        <time>2011-08-20T16:07:08Z</time>
      </trkpt>
      <trkpt lat="59.4311146" lon="17.7779979">
        <ele>20.325</ele>
        <time>2011-08-20T16:07:09Z</time>
      </trkpt>
      <trkpt lat="59.4310023" lon="17.77802">
        <ele>22.2476</ele>
        <time>2011-08-20T16:07:13Z</time>
      </trkpt>
      <trkpt lat="59.4309245" lon="17.777971">
        <ele>22.7283</ele>
        <time>2011-08-20T16:07:16Z</time>
      </trkpt>
      <trkpt lat="59.4309002" lon="17.7779381">
        <ele>22.2476</ele>
        <time>2011-08-20T16:07:17Z</time>
      </trkpt>
      <trkpt lat="59.4307246" lon="17.7777414">
        <ele>26.0929</ele>
        <time>2011-08-20T16:07:23Z</time>
      </trkpt>
      <trkpt lat="59.4306179" lon="17.7776503">
        <ele>31.8607</ele>
        <time>2011-08-20T16:07:27Z</time>
      </trkpt>
      <trkpt lat="59.43052" lon="17.7775898">
        <ele>35.7061</ele>
        <time>2011-08-20T16:07:31Z</time>
      </trkpt>
      <trkpt lat="59.4304172" lon="17.7774823">
        <ele>36.6675</ele>
        <time>2011-08-20T16:07:35Z</time>
      </trkpt>
      <trkpt lat="59.4303204" lon="17.7773549">
        <ele>36.6675</ele>
        <time>2011-08-20T16:07:39Z</time>
      </trkpt>
      <trkpt lat="59.4301704" lon="17.777282">
        <ele>40.0321</ele>
        <time>2011-08-20T16:07:44Z</time>
      </trkpt>
      <trkpt lat="59.4300207" lon="17.777203">
        <ele>43.3966</ele>
        <time>2011-08-20T16:07:49Z</time>
      </trkpt>
      <trkpt lat="59.429905" lon="17.7770238">
        <ele>43.3966</ele>
        <time>2011-08-20T16:07:53Z</time>
      </trkpt>
      <trkpt lat="59.4298292" lon="17.7767939">
        <ele>44.8386</ele>
        <time>2011-08-20T16:07:57Z</time>
      </trkpt>
      <trkpt lat="59.4298137" lon="17.7767453">
        <ele>46.7612</ele>
        <time>2011-08-20T16:07:58Z</time>
      </trkpt>
      <trkpt lat="59.4298672" lon="17.7764222">
        <ele>53.0098</ele>
        <time>2011-08-20T16:08:03Z</time>
      </trkpt>
      <trkpt lat="59.4298787" lon="17.7763696">
        <ele>54.9324</ele>
        <time>2011-08-20T16:08:04Z</time>
      </trkpt>
      <trkpt lat="59.4299942" lon="17.7762183">
        <ele>60.7003</ele>
        <time>2011-08-20T16:08:09Z</time>
      </trkpt>
      <trkpt lat="59.4302168" lon="17.7761178">
        <ele>62.6229</ele>
        <time>2011-08-20T16:08:14Z</time>
      </trkpt>
      <trkpt lat="59.4304157" lon="17.7760784">
        <ele>61.181</ele>
        <time>2011-08-20T16:08:18Z</time>
      </trkpt>
      <trkpt lat="59.4305109" lon="17.7760456">
        <ele>60.7003</ele>
        <time>2011-08-20T16:08:21Z</time>
      </trkpt>
      <trkpt lat="59.4306634" lon="17.7760316">
        <ele>57.3358</ele>
        <time>2011-08-20T16:08:27Z</time>
      </trkpt>
      <trkpt lat="59.4307748" lon="17.7759947">
        <ele>53.0098</ele>
        <time>2011-08-20T16:08:31Z</time>
      </trkpt>
      <trkpt lat="59.4307997" lon="17.7759889">
        <ele>52.5292</ele>
        <time>2011-08-20T16:08:32Z</time>
      </trkpt>
      <trkpt lat="59.4308837" lon="17.7759154">
        <ele>51.5679</ele>
        <time>2011-08-20T16:08:36Z</time>
      </trkpt>
      <trkpt lat="59.431026" lon="17.7757878">
        <ele>49.1646</ele>
        <time>2011-08-20T16:08:41Z</time>
      </trkpt>
      <trkpt lat="59.4311676" lon="17.7756177">
        <ele>48.2034</ele>
        <time>2011-08-20T16:08:46Z</time>
      </trkpt>
      <trkpt lat="59.4312976" lon="17.7754602">
        <ele>48.2034</ele>
        <time>2011-08-20T16:08:51Z</time>
      </trkpt>
      <trkpt lat="59.4314152" lon="17.7752969">
        <ele>48.684</ele>
        <time>2011-08-20T16:08:56Z</time>
      </trkpt>
      <trkpt lat="59.4315425" lon="17.7751403">
        <ele>52.5292</ele>
        <time>2011-08-20T16:09:02Z</time>
      </trkpt>
      <trkpt lat="59.4316736" lon="17.7750271">
        <ele>54.9324</ele>
        <time>2011-08-20T16:09:07Z</time>
      </trkpt>
      <trkpt lat="59.4317175" lon="17.7749989">
        <ele>55.4131</ele>
        <time>2011-08-20T16:09:09Z</time>
      </trkpt>
      <trkpt lat="59.4317769" lon="17.7749534">
        <ele>54.4518</ele>
        <time>2011-08-20T16:09:13Z</time>
      </trkpt>
      <trkpt lat="59.4317526" lon="17.7749141">
        <ele>54.4518</ele>
        <time>2011-08-20T16:09:18Z</time>
      </trkpt>
      <trkpt lat="59.4317427" lon="17.7749355">
        <ele>54.4518</ele>
        <time>2011-08-20T16:09:19Z</time>
      </trkpt>
      <trkpt lat="59.431601" lon="17.7751404">
        <ele>53.9712</ele>
        <time>2011-08-20T16:09:27Z</time>
      </trkpt>
      <trkpt lat="59.4314718" lon="17.7752959">
        <ele>50.6066</ele>
        <time>2011-08-20T16:09:33Z</time>
      </trkpt>
      <trkpt lat="59.4313284" lon="17.7755133">
        <ele>46.2806</ele>
        <time>2011-08-20T16:09:40Z</time>
      </trkpt>
      <trkpt lat="59.4312005" lon="17.7757091">
        <ele>43.3966</ele>
        <time>2011-08-20T16:09:46Z</time>
      </trkpt>
      <trkpt lat="59.4310577" lon="17.7759036">
        <ele>39.5513</ele>
        <time>2011-08-20T16:09:52Z</time>
      </trkpt>
      <trkpt lat="59.4309639" lon="17.7760148">
        <ele>41.474</ele>
        <time>2011-08-20T16:09:56Z</time>
      </trkpt>
      <trkpt lat="59.430808" lon="17.7760621">
        <ele>40.5128</ele>
        <time>2011-08-20T16:10:02Z</time>
      </trkpt>
      <trkpt lat="59.4306644" lon="17.776133">
        <ele>40.5128</ele>
        <time>2011-08-20T16:10:07Z</time>
      </trkpt>
      <trkpt lat="59.4305687" lon="17.7761718">
        <ele>42.916</ele>
        <time>2011-08-20T16:10:11Z</time>
      </trkpt>
      <trkpt lat="59.4304874" lon="17.7761994">
        <ele>44.8386</ele>
        <time>2011-08-20T16:10:15Z</time>
      </trkpt>
      <trkpt lat="59.4303106" lon="17.7762999">
        <ele>50.6066</ele>
        <time>2011-08-20T16:10:21Z</time>
      </trkpt>
      <trkpt lat="59.4301929" lon="17.7764346">
        <ele>54.9324</ele>
        <time>2011-08-20T16:10:25Z</time>
      </trkpt>
      <trkpt lat="59.429982" lon="17.7765789">
        <ele>58.7777</ele>
        <time>2011-08-20T16:10:31Z</time>
      </trkpt>
      <trkpt lat="59.4298984" lon="17.7767956">
        <ele>60.7003</ele>
        <time>2011-08-20T16:10:35Z</time>
      </trkpt>
      <trkpt lat="59.4298589" lon="17.7769826">
        <ele>56.3745</ele>
        <time>2011-08-20T16:10:40Z</time>
      </trkpt>
      <trkpt lat="59.4298678" lon="17.7769937">
        <ele>54.4518</ele>
        <time>2011-08-20T16:10:41Z</time>
      </trkpt>
      <trkpt lat="59.4299518" lon="17.7770752">
        <ele>44.8386</ele>
        <time>2011-08-20T16:10:46Z</time>
      </trkpt>
      <trkpt lat="59.4300162" lon="17.7771136">
        <ele>41.474</ele>
        <time>2011-08-20T16:10:50Z</time>
      </trkpt>
      <trkpt lat="59.4300914" lon="17.7771355">
        <ele>39.5513</ele>
        <time>2011-08-20T16:10:55Z</time>
      </trkpt>
      <trkpt lat="59.4301077" lon="17.7771417">
        <ele>39.0707</ele>
        <time>2011-08-20T16:10:56Z</time>
      </trkpt>
      <trkpt lat="59.4302773" lon="17.7772291">
        <ele>39.5513</ele>
        <time>2011-08-20T16:11:02Z</time>
      </trkpt>
      <trkpt lat="59.4304325" lon="17.7772628">
        <ele>35.7061</ele>
        <time>2011-08-20T16:11:06Z</time>
      </trkpt>
      <trkpt lat="59.4305884" lon="17.7773939">
        <ele>32.3416</ele>
        <time>2011-08-20T16:11:11Z</time>
      </trkpt>
      <trkpt lat="59.43071" lon="17.7774937">
        <ele>28.9769</ele>
        <time>2011-08-20T16:11:16Z</time>
      </trkpt>
      <trkpt lat="59.4308373" lon="17.7776659">
        <ele>25.1317</ele>
        <time>2011-08-20T16:11:22Z</time>
      </trkpt>
      <trkpt lat="59.4309574" lon="17.7778195">
        <ele>24.1703</ele>
        <time>2011-08-20T16:11:28Z</time>
      </trkpt>
      <trkpt lat="59.4310332" lon="17.7778983">
        <ele>23.6896</ele>
        <time>2011-08-20T16:11:32Z</time>
      </trkpt>
      <trkpt lat="59.4310525" lon="17.7779397">
        <ele>24.1703</ele>
        <time>2011-08-20T16:11:34Z</time>
      </trkpt>
      <trkpt lat="59.4311559" lon="17.7779931">
        <ele>23.209</ele>
        <time>2011-08-20T16:11:38Z</time>
      </trkpt>
      <trkpt lat="59.4313393" lon="17.7780567">
        <ele>22.2476</ele>
        <time>2011-08-20T16:11:44Z</time>
      </trkpt>
      <trkpt lat="59.4315088" lon="17.7780725">
        <ele>22.2476</ele>
        <time>2011-08-20T16:11:50Z</time>
      </trkpt>
      <trkpt lat="59.4316431" lon="17.7781087">
        <ele>21.2864</ele>
        <time>2011-08-20T16:11:55Z</time>
      </trkpt>
      <trkpt lat="59.4316977" lon="17.7781461">
        <ele>21.767</ele>
        <time>2011-08-20T16:11:58Z</time>
      </trkpt>
      <trkpt lat="59.431705" lon="17.7780699">
        <ele>21.2864</ele>
        <time>2011-08-20T16:12:03Z</time>
      </trkpt>
      <trkpt lat="59.4316809" lon="17.7780668">
        <ele>21.767</ele>
        <time>2011-08-20T16:12:04Z</time>
      </trkpt>
      <trkpt lat="59.4315234" lon="17.7780583">
        <ele>21.2864</ele>
        <time>2011-08-20T16:12:11Z</time>
      </trkpt>
      <trkpt lat="59.4314281" lon="17.7780208">
        <ele>21.2864</ele>
        <time>2011-08-20T16:12:14Z</time>
      </trkpt>
      <trkpt lat="59.4312315" lon="17.7780408">
        <ele>20.8057</ele>
        <time>2011-08-20T16:12:22Z</time>
      </trkpt>
      <trkpt lat="59.4311369" lon="17.7780432">
        <ele>21.2864</ele>
        <time>2011-08-20T16:12:26Z</time>
      </trkpt>
      <trkpt lat="59.4309825" lon="17.7780187">
        <ele>24.1703</ele>
        <time>2011-08-20T16:12:32Z</time>
      </trkpt>
      <trkpt lat="59.430954" lon="17.777998">
        <ele>24.651</ele>
        <time>2011-08-20T16:12:33Z</time>
      </trkpt>
      <trkpt lat="59.4308601" lon="17.7779203">
        <ele>26.5736</ele>
        <time>2011-08-20T16:12:37Z</time>
      </trkpt>
      <trkpt lat="59.4307575" lon="17.7778265">
        <ele>29.9381</ele>
        <time>2011-08-20T16:12:41Z</time>
      </trkpt>
      <trkpt lat="59.4306463" lon="17.7777254">
        <ele>34.7449</ele>
        <time>2011-08-20T16:12:46Z</time>
      </trkpt>
      <trkpt lat="59.4304977" lon="17.7775844">
        <ele>37.6287</ele>
        <time>2011-08-20T16:12:51Z</time>
      </trkpt>
      <trkpt lat="59.430362" lon="17.7774978">
        <ele>38.1094</ele>
        <time>2011-08-20T16:12:55Z</time>
      </trkpt>
      <trkpt lat="59.4302164" lon="17.7773483">
        <ele>40.0321</ele>
        <time>2011-08-20T16:13:00Z</time>
      </trkpt>
      <trkpt lat="59.4300915" lon="17.7772869">
        <ele>41.9547</ele>
        <time>2011-08-20T16:13:04Z</time>
      </trkpt>
      <trkpt lat="59.4299403" lon="17.777144">
        <ele>45.3192</ele>
        <time>2011-08-20T16:13:10Z</time>
      </trkpt>
      <trkpt lat="59.4298527" lon="17.7769208">
        <ele>44.8386</ele>
        <time>2011-08-20T16:13:14Z</time>
      </trkpt>
      <trkpt lat="59.42986" lon="17.7765446">
        <ele>46.7612</ele>
        <time>2011-08-20T16:13:20Z</time>
      </trkpt>
      <trkpt lat="59.4298769" lon="17.7764838">
        <ele>47.7225</ele>
        <time>2011-08-20T16:13:21Z</time>
      </trkpt>
      <trkpt lat="59.4299341" lon="17.7763324">
        <ele>51.5679</ele>
        <time>2011-08-20T16:13:24Z</time>
      </trkpt>
      <trkpt lat="59.4300155" lon="17.7762235">
        <ele>59.2584</ele>
        <time>2011-08-20T16:13:29Z</time>
      </trkpt>
      <trkpt lat="59.4301294" lon="17.7761513">
        <ele>64.5457</ele>
        <time>2011-08-20T16:13:34Z</time>
      </trkpt>
      <trkpt lat="59.4302346" lon="17.776103">
        <ele>65.9877</ele>
        <time>2011-08-20T16:13:38Z</time>
      </trkpt>
      <trkpt lat="59.4304054" lon="17.7760665">
        <ele>60.2197</ele>
        <time>2011-08-20T16:13:44Z</time>
      </trkpt>
      <trkpt lat="59.4305172" lon="17.7760393">
        <ele>57.8165</ele>
        <time>2011-08-20T16:13:47Z</time>
      </trkpt>
      <trkpt lat="59.4306955" lon="17.7759958">
        <ele>56.8551</ele>
        <time>2011-08-20T16:13:52Z</time>
      </trkpt>
      <trkpt lat="59.4308555" lon="17.7759176">
        <ele>55.4131</ele>
        <time>2011-08-20T16:13:57Z</time>
      </trkpt>
      <trkpt lat="59.4310001" lon="17.7757534">
        <ele>52.0486</ele>
        <time>2011-08-20T16:14:02Z</time>
      </trkpt>
      <trkpt lat="59.4311404" lon="17.7756011">
        <ele>52.5292</ele>
        <time>2011-08-20T16:14:07Z</time>
      </trkpt>
      <trkpt lat="59.4312549" lon="17.7754394">
        <ele>50.6066</ele>
        <time>2011-08-20T16:14:11Z</time>
      </trkpt>
      <trkpt lat="59.4313752" lon="17.7752746">
        <ele>49.6453</ele>
        <time>2011-08-20T16:14:16Z</time>
      </trkpt>
      <trkpt lat="59.431489" lon="17.7751519">
        <ele>50.126</ele>
        <time>2011-08-20T16:14:20Z</time>
      </trkpt>
      <trkpt lat="59.4316212" lon="17.7750272">
        <ele>52.5292</ele>
        <time>2011-08-20T16:14:25Z</time>
      </trkpt>
      <trkpt lat="59.4316692" lon="17.7750004">
        <ele>54.4518</ele>
        <time>2011-08-20T16:14:27Z</time>
      </trkpt>
      <trkpt lat="59.4317322" lon="17.7749658">
        <ele>55.4131</ele>
        <time>2011-08-20T16:14:30Z</time>
      </trkpt>
      <trkpt lat="59.4317481" lon="17.7749668">
        <ele>55.8938</ele>
        <time>2011-08-20T16:14:31Z</time>
      </trkpt>
      <trkpt lat="59.4318445" lon="17.7749494">
        <ele>57.3358</ele>
        <time>2011-08-20T16:14:37Z</time>
      </trkpt>
      <trkpt lat="59.4318617" lon="17.7749435">
        <ele>57.8165</ele>
        <time>2011-08-20T16:14:38Z</time>
      </trkpt>
      <trkpt lat="59.4319137" lon="17.7749003">
        <ele>58.2971</ele>
        <time>2011-08-20T16:14:43Z</time>
      </trkpt>
      <trkpt lat="59.4320626" lon="17.7748483">
        <ele>58.7777</ele>
        <time>2011-08-20T16:14:49Z</time>
      </trkpt>
      <trkpt lat="59.4322324" lon="17.7748509">
        <ele>61.181</ele>
        <time>2011-08-20T16:14:55Z</time>
      </trkpt>
      <trkpt lat="59.4323791" lon="17.7748381">
        <ele>62.6229</ele>
        <time>2011-08-20T16:15:00Z</time>
      </trkpt>
      <trkpt lat="59.4324786" lon="17.7748349">
        <ele>63.1036</ele>
        <time>2011-08-20T16:15:04Z</time>
      </trkpt>
      <trkpt lat="59.4326189" lon="17.7749954">
        <ele>60.7003</ele>
        <time>2011-08-20T16:15:10Z</time>
      </trkpt>
      <trkpt lat="59.4326402" lon="17.7750468">
        <ele>60.2197</ele>
        <time>2011-08-20T16:15:11Z</time>
      </trkpt>
      <trkpt lat="59.4327122" lon="17.775153">
        <ele>58.2971</ele>
        <time>2011-08-20T16:15:14Z</time>
      </trkpt>
      <trkpt lat="59.4327904" lon="17.7750364">
        <ele>55.8938</ele>
        <time>2011-08-20T16:15:18Z</time>
      </trkpt>
      <trkpt lat="59.4328852" lon="17.7750246">
        <ele>54.4518</ele>
        <time>2011-08-20T16:15:22Z</time>
      </trkpt>
      <trkpt lat="59.4329236" lon="17.7751947">
        <ele>52.0486</ele>
        <time>2011-08-20T16:15:25Z</time>
      </trkpt>
      <trkpt lat="59.4329784" lon="17.7753801">
        <ele>48.684</ele>
        <time>2011-08-20T16:15:29Z</time>
      </trkpt>
      <trkpt lat="59.4330022" lon="17.7753638">
        <ele>48.2034</ele>
        <time>2011-08-20T16:15:32Z</time>
      </trkpt>
      <trkpt lat="59.4330053" lon="17.7753276">
        <ele>47.7225</ele>
        <time>2011-08-20T16:15:33Z</time>
      </trkpt>
      <trkpt lat="59.4330187" lon="17.7750974">
        <ele>45.7999</ele>
        <time>2011-08-20T16:15:38Z</time>
      </trkpt>
      <trkpt lat="59.4330073" lon="17.774952">
        <ele>44.358</ele>
        <time>2011-08-20T16:15:41Z</time>
      </trkpt>
      <trkpt lat="59.433068" lon="17.774837">
        <ele>41.9547</ele>
        <time>2011-08-20T16:15:45Z</time>
      </trkpt>
      <trkpt lat="59.4331317" lon="17.7749429">
        <ele>40.9934</ele>
        <time>2011-08-20T16:15:48Z</time>
      </trkpt>
      <trkpt lat="59.4332219" lon="17.7751673">
        <ele>37.6287</ele>
        <time>2011-08-20T16:15:53Z</time>
      </trkpt>
      <trkpt lat="59.4333059" lon="17.7754385">
        <ele>34.2642</ele>
        <time>2011-08-20T16:15:59Z</time>
      </trkpt>
      <trkpt lat="59.4333453" lon="17.775683">
        <ele>30.8995</ele>
        <time>2011-08-20T16:16:04Z</time>
      </trkpt>
      <trkpt lat="59.4333398" lon="17.7759283">
        <ele>30.4188</ele>
        <time>2011-08-20T16:16:09Z</time>
      </trkpt>
      <trkpt lat="59.4333481" lon="17.7761026">
        <ele>29.4575</ele>
        <time>2011-08-20T16:16:12Z</time>
      </trkpt>
      <trkpt lat="59.4334213" lon="17.7761434">
        <ele>27.0543</ele>
        <time>2011-08-20T16:16:16Z</time>
      </trkpt>
      <trkpt lat="59.4334716" lon="17.7760256">
        <ele>25.1317</ele>
        <time>2011-08-20T16:16:19Z</time>
      </trkpt>
      <trkpt lat="59.4335722" lon="17.7756456">
        <ele>23.209</ele>
        <time>2011-08-20T16:16:26Z</time>
      </trkpt>
      <trkpt lat="59.433568" lon="17.775428">
        <ele>20.8057</ele>
        <time>2011-08-20T16:16:30Z</time>
      </trkpt>
      <trkpt lat="59.4335703" lon="17.7753877">
        <ele>20.8057</ele>
        <time>2011-08-20T16:16:31Z</time>
      </trkpt>
      <trkpt lat="59.4336492" lon="17.7752125">
        <ele>19.8444</ele>
        <time>2011-08-20T16:16:35Z</time>
      </trkpt>
      <trkpt lat="59.4337947" lon="17.7750509">
        <ele>18.4023</ele>
        <time>2011-08-20T16:16:41Z</time>
      </trkpt>
      <trkpt lat="59.4338155" lon="17.7750321">
        <ele>17.9218</ele>
        <time>2011-08-20T16:16:42Z</time>
      </trkpt>
      <trkpt lat="59.4338656" lon="17.7750222">
        <ele>18.4023</ele>
        <time>2011-08-20T16:16:44Z</time>
      </trkpt>
      <trkpt lat="59.4340196" lon="17.7752042">
        <ele>15.999</ele>
        <time>2011-08-20T16:16:50Z</time>
      </trkpt>
      <trkpt lat="59.4341233" lon="17.7754539">
        <ele>16.9604</ele>
        <time>2011-08-20T16:16:55Z</time>
      </trkpt>
      <trkpt lat="59.4342355" lon="17.775658">
        <ele>18.8831</ele>
        <time>2011-08-20T16:17:00Z</time>
      </trkpt>
      <trkpt lat="59.4343888" lon="17.7757342">
        <ele>18.8831</ele>
        <time>2011-08-20T16:17:05Z</time>
      </trkpt>
      <trkpt lat="59.4344465" lon="17.7758116">
        <ele>18.8831</ele>
        <time>2011-08-20T16:17:07Z</time>
      </trkpt>
      <trkpt lat="59.4344598" lon="17.7761704">
        <ele>16.4797</ele>
        <time>2011-08-20T16:17:13Z</time>
      </trkpt>
      <trkpt lat="59.4344421" lon="17.7764546">
        <ele>13.1151</ele>
        <time>2011-08-20T16:17:17Z</time>
      </trkpt>
      <trkpt lat="59.4345173" lon="17.776577">
        <ele>9.2699</ele>
        <time>2011-08-20T16:17:22Z</time>
      </trkpt>
      <trkpt lat="59.4345257" lon="17.7765027">
        <ele>6.86646</ele>
        <time>2011-08-20T16:17:25Z</time>
      </trkpt>
      <trkpt lat="59.4345314" lon="17.7761729">
        <ele>4.46326</ele>
        <time>2011-08-20T16:17:31Z</time>
      </trkpt>
      <trkpt lat="59.434495" lon="17.7758227">
        <ele>2.06006</ele>
        <time>2011-08-20T16:17:37Z</time>
      </trkpt>
      <trkpt lat="59.4344936" lon="17.7756518">
        <ele>3.02124</ele>
        <time>2011-08-20T16:17:40Z</time>
      </trkpt>
      <trkpt lat="59.4345106" lon="17.7753717">
        <ele>2.54065</ele>
        <time>2011-08-20T16:17:45Z</time>
      </trkpt>
      <trkpt lat="59.4345045" lon="17.7751364">
        <ele>3.02124</ele>
        <time>2011-08-20T16:17:50Z</time>
      </trkpt>
      <trkpt lat="59.4345164" lon="17.7749768">
        <ele>3.50195</ele>
        <time>2011-08-20T16:17:53Z</time>
      </trkpt>
      <trkpt lat="59.4345579" lon="17.7746803">
        <ele>6.38586</ele>
        <time>2011-08-20T16:17:58Z</time>
      </trkpt>
      <trkpt lat="59.4345263" lon="17.7743774">
        <ele>8.30859</ele>
        <time>2011-08-20T16:18:04Z</time>
      </trkpt>
      <trkpt lat="59.4344309" lon="17.7741682">
        <ele>8.30859</ele>
        <time>2011-08-20T16:18:09Z</time>
      </trkpt>
      <trkpt lat="59.4343088" lon="17.7739337">
        <ele>9.75061</ele>
        <time>2011-08-20T16:18:15Z</time>
      </trkpt>
      <trkpt lat="59.4341843" lon="17.7736629">
        <ele>8.78918</ele>
        <time>2011-08-20T16:18:20Z</time>
      </trkpt>
      <trkpt lat="59.4341149" lon="17.7734068">
        <ele>7.34717</ele>
        <time>2011-08-20T16:18:25Z</time>
      </trkpt>
      <trkpt lat="59.434031" lon="17.7732165">
        <ele>6.38586</ele>
        <time>2011-08-20T16:18:30Z</time>
      </trkpt>
      <trkpt lat="59.4339088" lon="17.7730486">
        <ele>6.86646</ele>
        <time>2011-08-20T16:18:36Z</time>
      </trkpt>
      <trkpt lat="59.433811" lon="17.7729156">
        <ele>8.78918</ele>
        <time>2011-08-20T16:18:41Z</time>
      </trkpt>
      <trkpt lat="59.4337215" lon="17.7727793">
        <ele>9.2699</ele>
        <time>2011-08-20T16:18:45Z</time>
      </trkpt>
      <trkpt lat="59.4336052" lon="17.7726588">
        <ele>9.75061</ele>
        <time>2011-08-20T16:18:50Z</time>
      </trkpt>
      <trkpt lat="59.4335071" lon="17.772567">
        <ele>9.75061</ele>
        <time>2011-08-20T16:18:54Z</time>
      </trkpt>
      <trkpt lat="59.4333685" lon="17.7725295">
        <ele>10.7118</ele>
        <time>2011-08-20T16:18:59Z</time>
      </trkpt>
      <trkpt lat="59.4332865" lon="17.7724794">
        <ele>12.1538</ele>
        <time>2011-08-20T16:19:02Z</time>
      </trkpt>
      <trkpt lat="59.4331411" lon="17.7723334">
        <ele>11.1925</ele>
        <time>2011-08-20T16:19:07Z</time>
      </trkpt>
      <trkpt lat="59.4330597" lon="17.7722241">
        <ele>10.2312</ele>
        <time>2011-08-20T16:19:11Z</time>
      </trkpt>
      <trkpt lat="59.4329868" lon="17.7721614">
        <ele>8.78918</ele>
        <time>2011-08-20T16:19:14Z</time>
      </trkpt>
      <trkpt lat="59.4328272" lon="17.7720001">
        <ele>8.30859</ele>
        <time>2011-08-20T16:19:20Z</time>
      </trkpt>
      <trkpt lat="59.4328058" lon="17.771987">
        <ele>8.30859</ele>
        <time>2011-08-20T16:19:21Z</time>
      </trkpt>
      <trkpt lat="59.4326971" lon="17.7718569">
        <ele>8.78918</ele>
        <time>2011-08-20T16:19:26Z</time>
      </trkpt>
      <trkpt lat="59.4325396" lon="17.771706">
        <ele>6.86646</ele>
        <time>2011-08-20T16:19:32Z</time>
      </trkpt>
      <trkpt lat="59.4324195" lon="17.7715807">
        <ele>6.86646</ele>
        <time>2011-08-20T16:19:37Z</time>
      </trkpt>
      <trkpt lat="59.4323048" lon="17.7714299">
        <ele>6.86646</ele>
        <time>2011-08-20T16:19:42Z</time>
      </trkpt>
      <trkpt lat="59.4321886" lon="17.77132">
        <ele>6.86646</ele>
        <time>2011-08-20T16:19:47Z</time>
      </trkpt>
      <trkpt lat="59.4320678" lon="17.7712678">
        <ele>6.38586</ele>
        <time>2011-08-20T16:19:52Z</time>
      </trkpt>
      <trkpt lat="59.4319533" lon="17.7711985">
        <ele>5.90527</ele>
        <time>2011-08-20T16:19:56Z</time>
      </trkpt>
      <trkpt lat="59.4319009" lon="17.7711482">
        <ele>4.94385</ele>
        <time>2011-08-20T16:19:58Z</time>
      </trkpt>
      <trkpt lat="59.4317464" lon="17.7711145">
        <ele>3.02124</ele>
        <time>2011-08-20T16:20:03Z</time>
      </trkpt>
      <trkpt lat="59.4317205" lon="17.7711074">
        <ele>2.54065</ele>
        <time>2011-08-20T16:20:04Z</time>
      </trkpt>
      <trkpt lat="59.4315367" lon="17.7711311">
        <ele>0</ele>
        <time>2011-08-20T16:20:11Z</time>
      </trkpt>
      <trkpt lat="59.4313523" lon="17.771145">
        <ele>0</ele>
        <time>2011-08-20T16:20:17Z</time>
      </trkpt>
      <trkpt lat="59.4312213" lon="17.7710906">
        <ele>0</ele>
        <time>2011-08-20T16:20:22Z</time>
      </trkpt>
      <trkpt lat="59.4311062" lon="17.7710353">
        <ele>0</ele>
        <time>2011-08-20T16:20:26Z</time>
      </trkpt>
      <trkpt lat="59.4310121" lon="17.7709654">
        <ele>0</ele>
        <time>2011-08-20T16:20:30Z</time>
      </trkpt>
      <trkpt lat="59.4308596" lon="17.7708264">
        <ele>0</ele>
        <time>2011-08-20T16:20:35Z</time>
      </trkpt>
      <trkpt lat="59.4306879" lon="17.7706747">
        <ele>0</ele>
        <time>2011-08-20T16:20:40Z</time>
      </trkpt>
      <trkpt lat="59.4306415" lon="17.7706546">
        <ele>0</ele>
        <time>2011-08-20T16:20:42Z</time>
      </trkpt>
      <trkpt lat="59.4305308" lon="17.7707129">
        <ele>0</ele>
        <time>2011-08-20T16:20:47Z</time>
      </trkpt>
      <trkpt lat="59.4303608" lon="17.7707923">
        <ele>0</ele>
        <time>2011-08-20T16:20:53Z</time>
      </trkpt>
      <trkpt lat="59.4302656" lon="17.7708534">
        <ele>0.618042</ele>
        <time>2011-08-20T16:20:57Z</time>
      </trkpt>
      <trkpt lat="59.4301402" lon="17.7709931">
        <ele>0</ele>
        <time>2011-08-20T16:21:03Z</time>
      </trkpt>
      <trkpt lat="59.4300004" lon="17.7710901">
        <ele>1.09863</ele>
        <time>2011-08-20T16:21:09Z</time>
      </trkpt>
      <trkpt lat="59.429976" lon="17.7711169">
        <ele>1.09863</ele>
        <time>2011-08-20T16:21:10Z</time>
      </trkpt>
      <trkpt lat="59.4298262" lon="17.7711865">
        <ele>0.137451</ele>
        <time>2011-08-20T16:21:16Z</time>
      </trkpt>
      <trkpt lat="59.4297765" lon="17.7712009">
        <ele>0</ele>
        <time>2011-08-20T16:21:18Z</time>
      </trkpt>
      <trkpt lat="59.4296708" lon="17.7711855">
        <ele>0</ele>
        <time>2011-08-20T16:21:23Z</time>
      </trkpt>
      <trkpt lat="59.4295472" lon="17.7711639">
        <ele>0</ele>
        <time>2011-08-20T16:21:28Z</time>
      </trkpt>
      <trkpt lat="59.4295063" lon="17.7711607">
        <ele>0</ele>
        <time>2011-08-20T16:21:30Z</time>
      </trkpt>
      <trkpt lat="59.4293771" lon="17.7711626">
        <ele>0</ele>
        <time>2011-08-20T16:21:36Z</time>
      </trkpt>
      <trkpt lat="59.429349" lon="17.7711605">
        <ele>0</ele>
        <time>2011-08-20T16:21:37Z</time>
      </trkpt>
      <trkpt lat="59.4291974" lon="17.7711223">
        <ele>0</ele>
        <time>2011-08-20T16:21:43Z</time>
      </trkpt>
      <trkpt lat="59.4290731" lon="17.7711104">
        <ele>0</ele>
        <time>2011-08-20T16:21:48Z</time>
      </trkpt>
      <trkpt lat="59.4290177" lon="17.7710553">
        <ele>0</ele>
        <time>2011-08-20T16:21:51Z</time>
      </trkpt>
      <trkpt lat="59.428854" lon="17.7710823">
        <ele>0</ele>
        <time>2011-08-20T16:21:57Z</time>
      </trkpt>
      <trkpt lat="59.4287006" lon="17.7710814">
        <ele>0</ele>
        <time>2011-08-20T16:22:03Z</time>
      </trkpt>
      <trkpt lat="59.4285825" lon="17.7710669">
        <ele>0</ele>
        <time>2011-08-20T16:22:08Z</time>
      </trkpt>
      <trkpt lat="59.4285116" lon="17.7710187">
        <ele>0</ele>
        <time>2011-08-20T16:22:11Z</time>
      </trkpt>
      <trkpt lat="59.4284008" lon="17.7710704">
        <ele>0</ele>
        <time>2011-08-20T16:22:16Z</time>
      </trkpt>
      <trkpt lat="59.4282918" lon="17.7711648">
        <ele>0</ele>
        <time>2011-08-20T16:22:20Z</time>
      </trkpt>
      <trkpt lat="59.4282593" lon="17.7711803">
        <ele>0</ele>
        <time>2011-08-20T16:22:21Z</time>
      </trkpt>
      <trkpt lat="59.4280866" lon="17.7712373">
        <ele>0</ele>
        <time>2011-08-20T16:22:27Z</time>
      </trkpt>
      <trkpt lat="59.4279641" lon="17.7712843">
        <ele>0</ele>
        <time>2011-08-20T16:22:31Z</time>
      </trkpt>
      <trkpt lat="59.4278502" lon="17.7714388">
        <ele>0</ele>
        <time>2011-08-20T16:22:35Z</time>
      </trkpt>
      <trkpt lat="59.42776" lon="17.7715969">
        <ele>0</ele>
        <time>2011-08-20T16:22:39Z</time>
      </trkpt>
      <trkpt lat="59.427691" lon="17.7716247">
        <ele>0</ele>
        <time>2011-08-20T16:22:41Z</time>
      </trkpt>
      <trkpt lat="59.4275603" lon="17.771636">
        <ele>0</ele>
        <time>2011-08-20T16:22:46Z</time>
      </trkpt>
      <trkpt lat="59.4274381" lon="17.7716574">
        <ele>0</ele>
        <time>2011-08-20T16:22:51Z</time>
      </trkpt>
      <trkpt lat="59.4272749" lon="17.7716831">
        <ele>0</ele>
        <time>2011-08-20T16:22:56Z</time>
      </trkpt>
      <trkpt lat="59.4270633" lon="17.7717941">
        <ele>0</ele>
        <time>2011-08-20T16:23:01Z</time>
      </trkpt>
      <trkpt lat="59.4268866" lon="17.771867">
        <ele>5.42456</ele>
        <time>2011-08-20T16:23:06Z</time>
      </trkpt>
      <trkpt lat="59.4267751" lon="17.7719148">
        <ele>10.7118</ele>
        <time>2011-08-20T16:23:10Z</time>
      </trkpt>
      <trkpt lat="59.4266121" lon="17.7719981">
        <ele>16.9604</ele>
        <time>2011-08-20T16:23:15Z</time>
      </trkpt>
      <trkpt lat="59.4264503" lon="17.7721089">
        <ele>16.4797</ele>
        <time>2011-08-20T16:23:21Z</time>
      </trkpt>
      <trkpt lat="59.4263106" lon="17.7722158">
        <ele>16.9604</ele>
        <time>2011-08-20T16:23:26Z</time>
      </trkpt>
      <trkpt lat="59.4261653" lon="17.7723147">
        <ele>18.4023</ele>
        <time>2011-08-20T16:23:31Z</time>
      </trkpt>
      <trkpt lat="59.4260546" lon="17.7723179">
        <ele>16.9604</ele>
        <time>2011-08-20T16:23:35Z</time>
      </trkpt>
      <trkpt lat="59.4259148" lon="17.772378">
        <ele>17.4412</ele>
        <time>2011-08-20T16:23:41Z</time>
      </trkpt>
      <trkpt lat="59.4257874" lon="17.7724262">
        <ele>16.4797</ele>
        <time>2011-08-20T16:23:46Z</time>
      </trkpt>
      <trkpt lat="59.4256713" lon="17.7725023">
        <ele>15.999</ele>
        <time>2011-08-20T16:23:51Z</time>
      </trkpt>
      <trkpt lat="59.4255434" lon="17.772551">
        <ele>13.5958</ele>
        <time>2011-08-20T16:23:56Z</time>
      </trkpt>
      <trkpt lat="59.425388" lon="17.7726484">
        <ele>10.2312</ele>
        <time>2011-08-20T16:24:02Z</time>
      </trkpt>
      <trkpt lat="59.4253355" lon="17.7726777">
        <ele>10.2312</ele>
        <time>2011-08-20T16:24:04Z</time>
      </trkpt>
      <trkpt lat="59.4252046" lon="17.7727759">
        <ele>8.78918</ele>
        <time>2011-08-20T16:24:10Z</time>
      </trkpt>
      <trkpt lat="59.4250331" lon="17.7730296">
        <ele>16.9604</ele>
        <time>2011-08-20T16:24:18Z</time>
      </trkpt>
      <trkpt lat="59.4250012" lon="17.7731152">
        <ele>19.8444</ele>
        <time>2011-08-20T16:24:21Z</time>
      </trkpt>
      <trkpt lat="59.4249415" lon="17.773257">
        <ele>23.6896</ele>
        <time>2011-08-20T16:24:27Z</time>
      </trkpt>
      <trkpt lat="59.4248857" lon="17.7734731">
        <ele>29.4575</ele>
        <time>2011-08-20T16:24:33Z</time>
      </trkpt>
      <trkpt lat="59.4248639" lon="17.7736439">
        <ele>31.3801</ele>
        <time>2011-08-20T16:24:37Z</time>
      </trkpt>
      <trkpt lat="59.4248603" lon="17.773831">
        <ele>34.2642</ele>
        <time>2011-08-20T16:24:42Z</time>
      </trkpt>
      <trkpt lat="59.4248317" lon="17.7742237">
        <ele>33.7834</ele>
        <time>2011-08-20T16:24:49Z</time>
      </trkpt>
      <trkpt lat="59.4248255" lon="17.7743092">
        <ele>35.2255</ele>
        <time>2011-08-20T16:24:51Z</time>
      </trkpt>
      <trkpt lat="59.4248124" lon="17.7745277">
        <ele>37.1481</ele>
        <time>2011-08-20T16:24:57Z</time>
      </trkpt>
      <trkpt lat="59.424805" lon="17.7747007">
        <ele>36.6675</ele>
        <time>2011-08-20T16:25:01Z</time>
      </trkpt>
      <trkpt lat="59.4248633" lon="17.7749833">
        <ele>35.2255</ele>
        <time>2011-08-20T16:25:07Z</time>
      </trkpt>
      <trkpt lat="59.4249079" lon="17.7752271">
        <ele>35.7061</ele>
        <time>2011-08-20T16:25:12Z</time>
      </trkpt>
      <trkpt lat="59.4249564" lon="17.7754321">
        <ele>35.2255</ele>
        <time>2011-08-20T16:25:16Z</time>
      </trkpt>
      <trkpt lat="59.4250102" lon="17.7757413">
        <ele>35.2255</ele>
        <time>2011-08-20T16:25:22Z</time>
      </trkpt>
      <trkpt lat="59.4251088" lon="17.7759621">
        <ele>35.7061</ele>
        <time>2011-08-20T16:25:27Z</time>
      </trkpt>
      <trkpt lat="59.4252119" lon="17.7761777">
        <ele>37.6287</ele>
        <time>2011-08-20T16:25:33Z</time>
      </trkpt>
      <trkpt lat="59.4253775" lon="17.7764472">
        <ele>40.0321</ele>
        <time>2011-08-20T16:25:41Z</time>
      </trkpt>
      <trkpt lat="59.4254632" lon="17.7765558">
        <ele>41.9547</ele>
        <time>2011-08-20T16:25:45Z</time>
      </trkpt>
      <trkpt lat="59.4254847" lon="17.7765837">
        <ele>42.4354</ele>
        <time>2011-08-20T16:25:46Z</time>
      </trkpt>
      <trkpt lat="59.4255668" lon="17.7766437">
        <ele>44.8386</ele>
        <time>2011-08-20T16:25:50Z</time>
      </trkpt>
      <trkpt lat="59.4256331" lon="17.7766589">
        <ele>48.2034</ele>
        <time>2011-08-20T16:25:54Z</time>
      </trkpt>
      <trkpt lat="59.4258075" lon="17.7767451">
        <ele>56.8551</ele>
        <time>2011-08-20T16:26:01Z</time>
      </trkpt>
      <trkpt lat="59.4259416" lon="17.776766">
        <ele>61.6617</ele>
        <time>2011-08-20T16:26:06Z</time>
      </trkpt>
      <trkpt lat="59.4259722" lon="17.7767598">
        <ele>62.1423</ele>
        <time>2011-08-20T16:26:07Z</time>
      </trkpt>
      <trkpt lat="59.426062" lon="17.776747">
        <ele>63.5844</ele>
        <time>2011-08-20T16:26:10Z</time>
      </trkpt>
      <trkpt lat="59.4262856" lon="17.7767667">
        <ele>63.1036</ele>
        <time>2011-08-20T16:26:18Z</time>
      </trkpt>
      <trkpt lat="59.4264193" lon="17.7767577">
        <ele>60.7003</ele>
        <time>2011-08-20T16:26:23Z</time>
      </trkpt>
      <trkpt lat="59.4265851" lon="17.7767752">
        <ele>58.2971</ele>
        <time>2011-08-20T16:26:29Z</time>
      </trkpt>
      <trkpt lat="59.4266769" lon="17.7767479">
        <ele>57.3358</ele>
        <time>2011-08-20T16:26:33Z</time>
      </trkpt>
      <trkpt lat="59.4267933" lon="17.7767059">
        <ele>55.4131</ele>
        <time>2011-08-20T16:26:38Z</time>
      </trkpt>
      <trkpt lat="59.4269301" lon="17.7766921">
        <ele>57.3358</ele>
        <time>2011-08-20T16:26:44Z</time>
      </trkpt>
      <trkpt lat="59.4269934" lon="17.7767127">
        <ele>61.181</ele>
        <time>2011-08-20T16:26:48Z</time>
      </trkpt>
      <trkpt lat="59.4270546" lon="17.7767312">
        <ele>63.1036</ele>
        <time>2011-08-20T16:26:52Z</time>
      </trkpt>
      <trkpt lat="59.4272291" lon="17.7767598">
        <ele>68.8716</ele>
        <time>2011-08-20T16:26:58Z</time>
      </trkpt>
      <trkpt lat="59.4274161" lon="17.7766675">
        <ele>73.1976</ele>
        <time>2011-08-20T16:27:04Z</time>
      </trkpt>
      <trkpt lat="59.4275305" lon="17.7766831">
        <ele>74.1588</ele>
        <time>2011-08-20T16:27:08Z</time>
      </trkpt>
      <trkpt lat="59.4276688" lon="17.7766522">
        <ele>77.5234</ele>
        <time>2011-08-20T16:27:14Z</time>
      </trkpt>
      <trkpt lat="59.4277883" lon="17.7766676">
        <ele>81.3688</ele>
        <time>2011-08-20T16:27:19Z</time>
      </trkpt>
      <trkpt lat="59.4279211" lon="17.7766909">
        <ele>88.5787</ele>
        <time>2011-08-20T16:27:24Z</time>
      </trkpt>
      <trkpt lat="59.4280422" lon="17.7768216">
        <ele>89.0593</ele>
        <time>2011-08-20T16:27:29Z</time>
      </trkpt>
      <trkpt lat="59.4281936" lon="17.776905">
        <ele>91.4625</ele>
        <time>2011-08-20T16:27:35Z</time>
      </trkpt>
      <trkpt lat="59.4282495" lon="17.7769577">
        <ele>92.424</ele>
        <time>2011-08-20T16:27:39Z</time>
      </trkpt>
      <trkpt lat="59.428365" lon="17.7770053">
        <ele>93.3851</ele>
        <time>2011-08-20T16:27:44Z</time>
      </trkpt>
      <trkpt lat="59.4284646" lon="17.7770813">
        <ele>91.9432</ele>
        <time>2011-08-20T16:27:49Z</time>
      </trkpt>
      <trkpt lat="59.428597" lon="17.7771556">
        <ele>96.7499</ele>
        <time>2011-08-20T16:27:54Z</time>
      </trkpt>
      <trkpt lat="59.4287504" lon="17.7771804">
        <ele>99.1531</ele>
        <time>2011-08-20T16:27:59Z</time>
      </trkpt>
      <trkpt lat="59.4288521" lon="17.7772592">
        <ele>99.1531</ele>
        <time>2011-08-20T16:28:03Z</time>
      </trkpt>
      <trkpt lat="59.4289602" lon="17.777314">
        <ele>102.998</ele>
        <time>2011-08-20T16:28:08Z</time>
      </trkpt>
      <trkpt lat="59.4290123" lon="17.7773379">
        <ele>105.882</ele>
        <time>2011-08-20T16:28:10Z</time>
      </trkpt>
      <trkpt lat="59.4291404" lon="17.7774893">
        <ele>107.324</ele>
        <time>2011-08-20T16:28:17Z</time>
      </trkpt>
      <trkpt lat="59.4292554" lon="17.777556">
        <ele>111.65</ele>
        <time>2011-08-20T16:28:22Z</time>
      </trkpt>
      <trkpt lat="59.4294547" lon="17.7776124">
        <ele>115.015</ele>
        <time>2011-08-20T16:28:29Z</time>
      </trkpt>
      <trkpt lat="59.4295968" lon="17.7776214">
        <ele>119.341</ele>
        <time>2011-08-20T16:28:34Z</time>
      </trkpt>
      <trkpt lat="59.429671" lon="17.7776509">
        <ele>118.86</ele>
        <time>2011-08-20T16:28:37Z</time>
      </trkpt>
      <trkpt lat="59.4298962" lon="17.7777061">
        <ele>115.496</ele>
        <time>2011-08-20T16:28:44Z</time>
      </trkpt>
      <trkpt lat="59.4300382" lon="17.7777384">
        <ele>113.092</ele>
        <time>2011-08-20T16:28:49Z</time>
      </trkpt>
      <trkpt lat="59.4301916" lon="17.7778046">
        <ele>112.131</ele>
        <time>2011-08-20T16:28:54Z</time>
      </trkpt>
      <trkpt lat="59.4303402" lon="17.7778384">
        <ele>108.766</ele>
        <time>2011-08-20T16:28:59Z</time>
      </trkpt>
      <trkpt lat="59.430425" lon="17.7778393">
        <ele>108.286</ele>
        <time>2011-08-20T16:29:02Z</time>
      </trkpt>
      <trkpt lat="59.4304418" lon="17.7778383">
        <ele>107.324</ele>
        <time>2011-08-20T16:29:03Z</time>
      </trkpt>
      <trkpt lat="59.4304519" lon="17.7777783">
        <ele>100.595</ele>
        <time>2011-08-20T16:29:07Z</time>
      </trkpt>
      <trkpt lat="59.4303587" lon="17.777612">
        <ele>92.424</ele>
        <time>2011-08-20T16:29:13Z</time>
      </trkpt>
      <trkpt lat="59.4303346" lon="17.7775372">
        <ele>79.9266</ele>
        <time>2011-08-20T16:29:17Z</time>
      </trkpt>
      <trkpt lat="59.4302203" lon="17.777394">
        <ele>72.2362</ele>
        <time>2011-08-20T16:29:22Z</time>
      </trkpt>
      <trkpt lat="59.4301365" lon="17.777296">
        <ele>59.7391</ele>
        <time>2011-08-20T16:29:27Z</time>
      </trkpt>
      <trkpt lat="59.4300506" lon="17.7771887">
        <ele>48.684</ele>
        <time>2011-08-20T16:29:32Z</time>
      </trkpt>
      <trkpt lat="59.4299238" lon="17.7769551">
        <ele>42.4354</ele>
        <time>2011-08-20T16:29:39Z</time>
      </trkpt>
      <trkpt lat="59.4298771" lon="17.7767602">
        <ele>40.0321</ele>
        <time>2011-08-20T16:29:44Z</time>
      </trkpt>
      <trkpt lat="59.4298709" lon="17.7767116">
        <ele>40.5128</ele>
        <time>2011-08-20T16:29:45Z</time>
      </trkpt>
      <trkpt lat="59.4299071" lon="17.7765215">
        <ele>41.9547</ele>
        <time>2011-08-20T16:29:49Z</time>
      </trkpt>
      <trkpt lat="59.4300647" lon="17.7763123">
        <ele>43.8773</ele>
        <time>2011-08-20T16:29:55Z</time>
      </trkpt>
      <trkpt lat="59.4302331" lon="17.7761998">
        <ele>44.8386</ele>
        <time>2011-08-20T16:30:01Z</time>
      </trkpt>
      <trkpt lat="59.4302609" lon="17.7761993">
        <ele>45.3192</ele>
        <time>2011-08-20T16:30:02Z</time>
      </trkpt>
      <trkpt lat="59.4304135" lon="17.7761393">
        <ele>47.2418</ele>
        <time>2011-08-20T16:30:07Z</time>
      </trkpt>
      <trkpt lat="59.4306513" lon="17.776035">
        <ele>50.126</ele>
        <time>2011-08-20T16:30:14Z</time>
      </trkpt>
      <trkpt lat="59.4308606" lon="17.7759827">
        <ele>49.6453</ele>
        <time>2011-08-20T16:30:21Z</time>
      </trkpt>
      <trkpt lat="59.4309836" lon="17.7758901">
        <ele>50.126</ele>
        <time>2011-08-20T16:30:26Z</time>
      </trkpt>
      <trkpt lat="59.4311023" lon="17.7757228">
        <ele>51.5679</ele>
        <time>2011-08-20T16:30:31Z</time>
      </trkpt>
      <trkpt lat="59.4312074" lon="17.7755754">
        <ele>52.5292</ele>
        <time>2011-08-20T16:30:36Z</time>
      </trkpt>
      <trkpt lat="59.4313007" lon="17.7754393">
        <ele>53.9712</ele>
        <time>2011-08-20T16:30:40Z</time>
      </trkpt>
      <trkpt lat="59.4314026" lon="17.7752918">
        <ele>55.8938</ele>
        <time>2011-08-20T16:30:45Z</time>
      </trkpt>
      <trkpt lat="59.4314917" lon="17.7751934">
        <ele>56.8551</ele>
        <time>2011-08-20T16:30:50Z</time>
      </trkpt>
      <trkpt lat="59.4315953" lon="17.7750909">
        <ele>58.2971</ele>
        <time>2011-08-20T16:30:55Z</time>
      </trkpt>
      <trkpt lat="59.4316811" lon="17.7750364">
        <ele>59.7391</ele>
        <time>2011-08-20T16:30:59Z</time>
      </trkpt>
      <trkpt lat="59.431698" lon="17.7750291">
        <ele>59.7391</ele>
        <time>2011-08-20T16:31:00Z</time>
      </trkpt>
      <trkpt lat="59.4317554" lon="17.7750038">
        <ele>60.7003</ele>
        <time>2011-08-20T16:31:04Z</time>
      </trkpt>
      <trkpt lat="59.4317445" lon="17.7750001">
        <ele>61.6617</ele>
        <time>2011-08-20T16:31:08Z</time>
      </trkpt>
      <trkpt lat="59.4316868" lon="17.7750337">
        <ele>59.7391</ele>
        <time>2011-08-20T16:31:12Z</time>
      </trkpt>
      <trkpt lat="59.431534" lon="17.775195">
        <ele>55.8938</ele>
        <time>2011-08-20T16:31:19Z</time>
      </trkpt>
      <trkpt lat="59.4314042" lon="17.7753672">
        <ele>53.0098</ele>
        <time>2011-08-20T16:31:25Z</time>
      </trkpt>
      <trkpt lat="59.431271" lon="17.775591">
        <ele>49.6453</ele>
        <time>2011-08-20T16:31:31Z</time>
      </trkpt>
      <trkpt lat="59.4311523" lon="17.7758028">
        <ele>47.7225</ele>
        <time>2011-08-20T16:31:36Z</time>
      </trkpt>
      <trkpt lat="59.431026" lon="17.7759668">
        <ele>46.2806</ele>
        <time>2011-08-20T16:31:41Z</time>
      </trkpt>
      <trkpt lat="59.4309017" lon="17.7760961">
        <ele>46.2806</ele>
        <time>2011-08-20T16:31:46Z</time>
      </trkpt>
      <trkpt lat="59.4307728" lon="17.7761572">
        <ele>46.2806</ele>
        <time>2011-08-20T16:31:51Z</time>
      </trkpt>
      <trkpt lat="59.4306695" lon="17.7761973">
        <ele>45.7999</ele>
        <time>2011-08-20T16:31:55Z</time>
      </trkpt>
      <trkpt lat="59.4305205" lon="17.776234">
        <ele>45.7999</ele>
        <time>2011-08-20T16:32:00Z</time>
      </trkpt>
      <trkpt lat="59.4303682" lon="17.7762377">
        <ele>43.3966</ele>
        <time>2011-08-20T16:32:06Z</time>
      </trkpt>
      <trkpt lat="59.4302379" lon="17.7763107">
        <ele>40.9934</ele>
        <time>2011-08-20T16:32:11Z</time>
      </trkpt>
      <trkpt lat="59.4300662" lon="17.7764314">
        <ele>39.0707</ele>
        <time>2011-08-20T16:32:17Z</time>
      </trkpt>
      <trkpt lat="59.4299153" lon="17.7766422">
        <ele>37.6287</ele>
        <time>2011-08-20T16:32:23Z</time>
      </trkpt>
      <trkpt lat="59.4299009" lon="17.7766686">
        <ele>37.1481</ele>
        <time>2011-08-20T16:32:24Z</time>
      </trkpt>
      <trkpt lat="59.4299144" lon="17.7768717">
        <ele>36.6675</ele>
        <time>2011-08-20T16:32:29Z</time>
      </trkpt>
      <trkpt lat="59.4300191" lon="17.7770275">
        <ele>35.2255</ele>
        <time>2011-08-20T16:32:34Z</time>
      </trkpt>
      <trkpt lat="59.4301304" lon="17.7771821">
        <ele>32.3416</ele>
        <time>2011-08-20T16:32:39Z</time>
      </trkpt>
      <trkpt lat="59.4302568" lon="17.7772797">
        <ele>34.2642</ele>
        <time>2011-08-20T16:32:44Z</time>
      </trkpt>
      <trkpt lat="59.4303659" lon="17.7772996">
        <ele>38.1094</ele>
        <time>2011-08-20T16:32:49Z</time>
      </trkpt>
      <trkpt lat="59.4305034" lon="17.7773907">
        <ele>40.9934</ele>
        <time>2011-08-20T16:32:54Z</time>
      </trkpt>
      <trkpt lat="59.4305632" lon="17.7775197">
        <ele>39.0707</ele>
        <time>2011-08-20T16:32:57Z</time>
      </trkpt>
      <trkpt lat="59.4306757" lon="17.7776917">
        <ele>37.1481</ele>
        <time>2011-08-20T16:33:03Z</time>
      </trkpt>
      <trkpt lat="59.4308069" lon="17.7778664">
        <ele>33.7834</ele>
        <time>2011-08-20T16:33:09Z</time>
      </trkpt>
      <trkpt lat="59.4309022" lon="17.7779533">
        <ele>30.4188</ele>
        <time>2011-08-20T16:33:13Z</time>
      </trkpt>
      <trkpt lat="59.4311035" lon="17.7779238">
        <ele>30.8995</ele>
        <time>2011-08-20T16:33:20Z</time>
      </trkpt>
      <trkpt lat="59.4312413" lon="17.7779404">
        <ele>30.4188</ele>
        <time>2011-08-20T16:33:25Z</time>
      </trkpt>
      <trkpt lat="59.4314255" lon="17.7779901">
        <ele>28.4962</ele>
        <time>2011-08-20T16:33:32Z</time>
      </trkpt>
      <trkpt lat="59.4315587" lon="17.7780357">
        <ele>27.5349</ele>
        <time>2011-08-20T16:33:37Z</time>
      </trkpt>
      <trkpt lat="59.4317169" lon="17.7781672">
        <ele>25.6123</ele>
        <time>2011-08-20T16:33:43Z</time>
      </trkpt>
      <trkpt lat="59.4318471" lon="17.7783957">
        <ele>23.209</ele>
        <time>2011-08-20T16:33:49Z</time>
      </trkpt>
      <trkpt lat="59.4319238" lon="17.7786987">
        <ele>20.8057</ele>
        <time>2011-08-20T16:33:55Z</time>
      </trkpt>
      <trkpt lat="59.4319434" lon="17.7789097">
        <ele>19.3638</ele>
        <time>2011-08-20T16:33:59Z</time>
      </trkpt>
      <trkpt lat="59.43196" lon="17.7791339">
        <ele>18.4023</ele>
        <time>2011-08-20T16:34:03Z</time>
      </trkpt>
      <trkpt lat="59.4319667" lon="17.779194">
        <ele>18.4023</ele>
        <time>2011-08-20T16:34:04Z</time>
      </trkpt>
      <trkpt lat="59.431917" lon="17.7792961">
        <ele>17.4412</ele>
        <time>2011-08-20T16:34:07Z</time>
      </trkpt>
    </trkseg>
  </trk>
</gpx>